Time;durP1;ratioP1;P1;durP2;ratioP2;P2;SDS_P1;SDS_P2;PMS_P1;PMS_P2;Temp;Humidity;BMP_temperature;BMP_pressure;BME280_temperature;BME280_humidity;BME280_pressure;Samples;Min_cycle;Max_cycle;Signal;HPM_P1;HPM_P2
2023/04/13 00:00:51;;;;;;;31.60;20.35;;;12.00;48.80;;;;;;4994226;28;20042;-83
2023/04/13 00:03:17;;;;;;;25.35;19.40;;;12.00;49.10;;;;;;5000631;28;20041;-82
2023/04/13 00:05:44;;;;;;;26.13;20.40;;;11.90;49.20;;;;;;4997315;28;20365;-82
2023/04/13 00:08:10;;;;;;;24.55;18.83;;;11.90;49.20;;;;;;5003059;28;20040;-82
2023/04/13 00:10:39;;;;;;;29.35;19.67;;;11.90;49.50;;;;;;5000231;28;20034;-82
2023/04/13 00:13:07;;;;;;;32.45;21.05;;;11.80;49.50;;;;;;5000141;28;20026;-83
2023/04/13 00:15:35;;;;;;;28.90;20.90;;;11.80;49.70;;;;;;4987095;28;20125;-83
2023/04/13 00:18:02;;;;;;;27.67;19.70;;;11.70;49.70;;;;;;4988511;28;20160;-83
2023/04/13 00:20:29;;;;;;;30.90;20.23;;;11.70;49.90;;;;;;4999695;28;20026;-81
2023/04/13 00:22:55;;;;;;;29.15;20.27;;;11.70;49.90;;;;;;5001129;28;20037;-82
2023/04/13 00:25:22;;;;;;;28.73;19.77;;;11.70;50.10;;;;;;5012833;28;20549;-82
2023/04/13 00:27:49;;;;;;;23.80;18.52;;;11.60;50.00;;;;;;5002368;28;20018;-81
2023/04/13 00:30:16;;;;;;;28.77;20.75;;;11.60;50.30;;;;;;5006729;28;20029;-82
2023/04/13 00:32:43;;;;;;;29.38;20.67;;;11.60;50.30;;;;;;4996385;28;20518;-82
2023/04/13 00:35:11;;;;;;;26.25;19.02;;;11.50;50.30;;;;;;5006646;28;20061;-82
2023/04/13 00:37:38;;;;;;;29.13;20.65;;;11.50;50.50;;;;;;4982442;28;20030;-82
2023/04/13 00:40:07;;;;;;;31.00;19.07;;;11.50;50.70;;;;;;5007082;28;20534;-82
2023/04/13 00:42:33;;;;;;;28.25;20.30;;;11.40;50.80;;;;;;5000161;28;20097;-83
2023/04/13 00:44:58;;;;;;;31.35;21.05;;;11.30;50.90;;;;;;5000433;28;20066;-82
2023/04/13 00:47:27;;;;;;;27.98;20.23;;;11.30;51.20;;;;;;5000096;28;20433;-82
2023/04/13 00:49:54;;;;;;;33.58;20.73;;;11.20;51.30;;;;;;5004591;28;20018;-83
2023/04/13 00:52:21;;;;;;;36.90;21.92;;;11.10;51.40;;;;;;5016556;28;20026;-82
2023/04/13 00:54:55;;;;;;;31.58;21.02;;;11.10;51.60;;;;;;5018641;28;20057;-81
2023/04/13 00:57:22;;;;;;;23.08;19.00;;;11.00;51.70;;;;;;5002144;28;20037;-82
2023/04/13 00:59:49;;;;;;;28.17;19.98;;;11.00;51.60;;;;;;5007034;28;20030;-82
2023/04/13 01:02:15;;;;;;;30.45;20.63;;;11.00;52.00;;;;;;4996731;28;20133;-81
2023/04/13 01:04:44;;;;;;;28.10;21.13;;;10.90;52.20;;;;;;5006557;28;20029;-82
2023/04/13 01:07:18;;;;;;;35.78;22.23;;;10.90;52.30;;;;;;5001359;28;20507;-82
2023/04/13 01:09:55;;;;;;;24.92;20.08;;;10.80;52.50;;;;;;4996820;28;20041;-82
2023/04/13 01:12:29;;;;;;;25.87;19.40;;;10.70;52.60;;;;;;5010383;28;20022;-81
2023/04/13 01:15:07;;;;;;;30.08;18.90;;;10.70;52.50;;;;;;5017983;28;20113;-82
2023/04/13 01:17:36;;;;;;;30.15;20.30;;;10.80;52.40;;;;;;5010833;28;20022;-82
2023/04/13 01:20:14;;;;;;;28.13;19.55;;;10.80;52.30;;;;;;5014934;28;20443;-82
2023/04/13 01:22:56;;;;;;;26.58;19.50;;;10.90;52.10;;;;;;5009759;28;20032;-82
2023/04/13 01:25:39;;;;;;;34.78;21.02;;;10.90;52.10;;;;;;5014039;28;20042;-82
2023/04/13 01:28:14;;;;;;;33.38;21.33;;;10.80;52.10;;;;;;5012972;28;20078;-82
2023/04/13 01:30:41;;;;;;;28.55;20.02;;;10.70;52.20;;;;;;5016021;28;20030;-81
2023/04/13 01:33:09;;;;;;;33.83;20.40;;;10.70;52.20;;;;;;5018838;28;20025;-81
2023/04/13 01:35:37;;;;;;;30.58;19.88;;;10.70;52.30;;;;;;5006123;28;20445;-83
2023/04/13 01:38:05;;;;;;;27.30;20.05;;;10.70;52.30;;;;;;5005258;28;20041;-82
2023/04/13 01:40:39;;;;;;;21.92;19.02;;;10.70;52.20;;;;;;5002885;28;20026;-82
2023/04/13 01:43:06;;;;;;;31.42;19.27;;;10.70;52.10;;;;;;4997996;28;20555;-82
2023/04/13 01:45:37;;;;;;;36.63;20.20;;;10.70;52.00;;;;;;4979723;28;20041;-82
2023/04/13 01:48:10;;;;;;;28.40;18.95;;;10.70;52.10;;;;;;4995041;28;20085;-83
2023/04/13 01:50:51;;;;;;;33.03;19.63;;;10.70;52.30;;;;;;5004189;28;20044;-82
2023/04/13 01:53:23;;;;;;;26.10;19.48;;;10.70;52.30;;;;;;4999495;28;20018;-81
2023/04/13 01:55:49;;;;;;;28.35;19.48;;;10.70;52.30;;;;;;4999743;28;20038;-80
2023/04/13 01:58:18;;;;;;;37.90;20.08;;;10.70;52.30;;;;;;4999773;28;20033;-80
2023/04/13 02:00:45;;;;;;;30.80;19.23;;;10.70;52.60;;;;;;4981158;28;20495;-81
2023/04/13 02:03:11;;;;;;;28.98;20.15;;;10.60;52.60;;;;;;4987063;28;20112;-80
2023/04/13 02:05:39;;;;;;;25.25;18.30;;;10.60;52.80;;;;;;5005870;28;20026;-80
2023/04/13 02:08:06;;;;;;;25.73;19.42;;;10.50;52.90;;;;;;4994619;28;20025;-79
2023/04/13 02:10:33;;;;;;;30.63;19.10;;;10.50;53.20;;;;;;5003311;28;20440;-79
2023/04/13 02:13:00;;;;;;;;;;;10.40;53.40;;;;;;5009514;28;20018;-79
2023/04/13 02:15:26;;;;;;;26.52;19.80;;;10.30;53.00;;;;;;5008163;28;19921;-80
2023/04/13 02:17:53;;;;;;;31.83;19.95;;;10.30;53.60;;;;;;5003470;28;20014;-80
2023/04/13 02:20:19;;;;;;;34.65;19.30;;;10.20;54.50;;;;;;5002380;28;20025;-80
2023/04/13 02:22:48;;;;;;;29.50;19.45;;;10.20;54.10;;;;;;5003398;28;20018;-80
2023/04/13 02:25:16;;;;;;;29.65;19.05;;;10.20;54.40;;;;;;4990574;28;20072;-80
2023/04/13 02:27:42;;;;;;;28.88;19.25;;;10.10;54.50;;;;;;5003656;28;20049;-80
2023/04/13 02:30:09;;;;;;;28.75;19.25;;;10.10;54.70;;;;;;5006985;28;20022;-79
2023/04/13 02:32:39;;;;;;;33.30;19.33;;;10.10;54.90;;;;;;5009619;28;20061;-80
2023/04/13 02:35:10;;;;;;;32.65;18.15;;;10.00;55.00;;;;;;5004230;28;20034;-79
2023/04/13 02:37:40;;;;;;;28.52;19.20;;;10.00;55.10;;;;;;4995720;28;20345;-80
2023/04/13 02:40:11;;;;;;;27.45;17.70;;;10.00;55.30;;;;;;4995251;28;20041;-81
2023/04/13 02:42:37;;;;;;;27.15;18.20;;;10.00;55.30;;;;;;4997510;28;20014;-80
2023/04/13 02:45:06;;;;;;;35.37;18.53;;;10.00;55.30;;;;;;4997061;28;20011;-79
2023/04/13 02:47:33;;;;;;;25.90;18.42;;;10.00;55.40;;;;;;5011330;28;20026;-79
2023/04/13 02:50:02;;;;;;;31.37;18.77;;;10.00;55.40;;;;;;5003683;28;20014;-80
2023/04/13 02:52:28;;;;;;;24.00;17.48;;;10.00;55.40;;;;;;5007504;28;20303;-79
2023/04/13 02:54:54;;;;;;;30.83;20.48;;;10.00;55.10;;;;;;4982550;28;20073;-81
2023/04/13 02:57:22;;;;;;;28.55;17.42;;;10.10;55.30;;;;;;5007831;28;20049;-80
2023/04/13 02:59:49;;;;;;;24.38;17.05;;;10.10;55.40;;;;;;5001727;28;20037;-80
2023/04/13 03:02:16;;;;;;;27.73;18.05;;;10.10;55.30;;;;;;4985736;28;20116;-81
2023/04/13 03:04:43;;;;;;;24.58;18.77;;;10.20;55.20;;;;;;4988526;28;20029;-80
2023/04/13 03:07:09;;;;;;;26.05;18.75;;;10.20;55.00;;;;;;5008712;28;20498;-81
2023/04/13 03:09:42;;;;;;;26.15;18.67;;;10.20;55.10;;;;;;4998573;28;20130;-79
2023/04/13 03:12:08;;;;;;;26.92;19.63;;;10.20;55.10;;;;;;5000391;28;20050;-80
2023/04/13 03:14:35;;;;;;;25.17;18.25;;;10.30;55.10;;;;;;5006460;28;20034;-79
2023/04/13 03:17:03;;;;;;;25.40;17.60;;;10.30;55.10;;;;;;4990213;28;20023;-79
2023/04/13 03:19:29;;;;;;;;;;;10.30;55.10;;;;;;5006879;28;20097;-79
2023/04/13 03:21:56;;;;;;;26.67;18.75;;;10.30;54.70;;;;;;5007449;28;19913;-79
2023/04/13 03:24:26;;;;;;;28.02;19.58;;;10.30;55.10;;;;;;5014698;28;20079;-81
2023/04/13 03:26:58;;;;;;;30.08;19.27;;;10.40;55.20;;;;;;5018233;28;20014;-79
2023/04/13 03:29:24;;;;;;;28.42;18.45;;;10.40;55.30;;;;;;5013862;28;20056;-80
2023/04/13 03:31:50;;;;;;;29.42;19.48;;;10.40;55.30;;;;;;4991345;28;20026;-81
2023/04/13 03:34:17;;;;;;;26.63;19.17;;;10.40;55.20;;;;;;4992023;28;20033;-81
2023/04/13 03:36:44;;;;;;;22.07;17.17;;;10.40;55.20;;;;;;4993889;28;20034;-80
2023/04/13 03:39:10;;;;;;;30.83;20.05;;;10.40;55.20;;;;;;4994774;28;20425;-79
2023/04/13 03:41:36;;;;;;;27.02;17.58;;;10.50;55.30;;;;;;4999093;28;20045;-79
2023/04/13 03:44:02;;;;;;;28.70;20.20;;;10.50;55.20;;;;;;4999627;28;20027;-80
2023/04/13 03:46:30;;;;;;;27.08;19.33;;;10.50;55.20;;;;;;5000104;28;20014;-79
2023/04/13 03:48:56;;;;;;;29.25;19.63;;;10.50;55.20;;;;;;5000097;28;20026;-81
2023/04/13 03:51:23;;;;;;;26.33;17.80;;;10.60;55.20;;;;;;5003490;28;20387;-80
2023/04/13 03:53:49;;;;;;;27.88;20.40;;;10.60;55.00;;;;;;5000515;28;20035;-80
2023/04/13 03:56:15;;;;;;;36.33;20.00;;;10.70;55.10;;;;;;4986514;28;20029;-80
2023/04/13 03:58:40;;;;;;;25.15;18.98;;;10.70;55.10;;;;;;5002595;28;20029;-80
2023/04/13 04:01:09;;;;;;;29.27;18.90;;;10.70;54.90;;;;;;4994911;28;20073;-81
2023/04/13 04:03:36;;;;;;;27.42;18.80;;;10.80;54.80;;;;;;4999573;28;20026;-81
2023/04/13 04:06:02;;;;;;;34.80;18.73;;;10.90;54.80;;;;;;4985924;28;20027;-81
2023/04/13 04:08:28;;;;;;;28.10;20.08;;;10.90;54.70;;;;;;4967921;28;20027;-81
2023/04/13 04:10:53;;;;;;;27.38;17.80;;;10.90;54.40;;;;;;4991620;28;20034;-81
2023/04/13 04:13:20;;;;;;;35.05;19.42;;;10.90;54.50;;;;;;4989417;28;20029;-81
2023/04/13 04:15:45;;;;;;;29.45;19.10;;;11.00;55.00;;;;;;4985825;28;20042;-80
2023/04/13 04:18:11;;;;;;;33.30;18.80;;;11.10;54.30;;;;;;4996064;28;20019;-81
2023/04/13 04:20:37;;;;;;;31.58;20.02;;;11.20;54.10;;;;;;4986223;28;20023;-80
2023/04/13 04:23:04;;;;;;;31.67;18.60;;;11.30;53.80;;;;;;4991316;28;20077;-81
2023/04/13 04:25:32;;;;;;;33.25;19.48;;;11.40;53.60;;;;;;4987909;28;20027;-81
2023/04/13 04:28:01;;;;;;;;;;;11.50;53.40;;;;;;4992492;28;20033;-83
2023/04/13 04:30:28;;;;;;;30.77;17.65;;;11.70;53.40;;;;;;5000335;28;20363;-80
2023/04/13 04:32:55;;;;;;;32.30;19.65;;;11.90;52.90;;;;;;4995309;28;20369;-81
2023/04/13 04:35:24;;;;;;;26.97;18.57;;;12.10;52.40;;;;;;4967391;28;20043;-80
2023/04/13 04:37:51;;;;;;;29.83;19.60;;;12.20;51.90;;;;;;4995005;28;20025;-82
2023/04/13 04:40:18;;;;;;;32.60;18.07;;;12.30;51.40;;;;;;4998127;28;20033;-81
2023/04/13 04:42:44;;;;;;;24.23;18.10;;;12.40;51.20;;;;;;4992321;28;20272;-82
2023/04/13 04:45:09;;;;;;;24.83;18.65;;;12.50;50.80;;;;;;4981889;28;20023;-83
2023/04/13 04:47:42;;;;;;;40.67;19.77;;;12.70;50.80;;;;;;4996195;28;20089;-81
2023/04/13 04:50:09;;;;;;;30.55;18.48;;;12.80;50.50;;;;;;4979290;28;20491;-81
2023/04/13 04:52:35;;;;;;;44.63;18.27;;;12.80;50.30;;;;;;4980451;28;20521;-80
2023/04/13 04:55:01;;;;;;;29.60;18.35;;;12.90;50.30;;;;;;4990470;28;20042;-83
2023/04/13 04:57:27;;;;;;;27.27;17.52;;;12.90;49.90;;;;;;4986241;28;20098;-81
2023/04/13 04:59:53;;;;;;;35.17;18.58;;;12.90;49.80;;;;;;4985623;28;20037;-81
2023/04/13 05:02:19;;;;;;;25.13;17.20;;;13.00;49.90;;;;;;4997492;28;20117;-80
2023/04/13 05:04:44;;;;;;;25.45;18.02;;;13.20;49.80;;;;;;5004091;28;20044;-80
2023/04/13 05:07:15;;;;;;;26.50;17.30;;;13.30;49.10;;;;;;5000564;28;20018;-80
2023/04/13 05:09:41;;;;;;;25.98;17.55;;;13.40;48.70;;;;;;5002774;28;20379;-81
2023/04/13 05:12:07;;;;;;;27.85;17.13;;;13.60;48.70;;;;;;4998975;28;20022;-80
2023/04/13 05:14:32;;;;;;;27.23;17.23;;;13.70;48.40;;;;;;5011962;28;20065;-84
2023/04/13 05:17:00;;;;;;;21.00;17.13;;;13.70;47.90;;;;;;5007898;28;20380;-81
2023/04/13 05:19:26;;;;;;;30.35;17.60;;;13.80;47.80;;;;;;5003493;28;20026;-84
2023/04/13 05:21:52;;;;;;;32.80;17.08;;;13.80;47.80;;;;;;5004016;28;20034;-87
2023/04/13 05:24:18;;;;;;;29.42;15.23;;;13.80;47.60;;;;;;5018927;28;20022;-88
2023/04/13 05:26:44;;;;;;;21.58;15.23;;;14.00;47.50;;;;;;4999436;28;20029;-88
2023/04/13 05:29:10;;;;;;;24.25;16.17;;;14.20;47.00;;;;;;4993576;28;20025;-89
2023/04/13 05:31:36;;;;;;;23.40;13.90;;;14.20;46.80;;;;;;5039863;28;20038;-82
2023/04/13 05:34:02;;;;;;;30.08;17.70;;;14.10;46.70;;;;;;5010765;28;20026;-82
2023/04/13 05:36:30;;;;;;;23.83;17.00;;;13.90;47.40;;;;;;5016969;28;20539;-83
2023/04/13 05:39:00;;;;;;;26.30;16.80;;;14.00;47.20;;;;;;4999523;28;20517;-80
2023/04/13 05:41:26;;;;;;;22.67;16.50;;;13.90;47.10;;;;;;5018718;28;20026;-83
2023/04/13 05:43:52;;;;;;;26.45;16.05;;;14.00;47.10;;;;;;5016007;28;20022;-82
2023/04/13 05:46:19;;;;;;;40.67;17.25;;;14.10;47.00;;;;;;5005069;28;20145;-83
2023/04/13 05:48:45;;;;;;;;;;;14.20;47.10;;;;;;5019511;28;20839;-82
2023/04/13 05:51:17;;;;;;;22.77;14.07;;;14.30;47.10;;;;;;5017991;28;19905;-82
2023/04/13 05:53:43;;;;;;;27.23;17.55;;;14.30;46.50;;;;;;5004731;28;20091;-82
2023/04/13 05:56:08;;;;;;;22.77;15.80;;;14.30;46.80;;;;;;5010339;28;20018;-83
2023/04/13 05:58:34;;;;;;;32.75;18.80;;;14.80;46.40;;;;;;5021945;28;20468;-81
2023/04/13 06:01:00;;;;;;;24.35;14.90;;;15.40;45.40;;;;;;5019167;28;20046;-82
2023/04/13 06:03:28;;;;;;;27.85;15.27;;;15.90;44.50;;;;;;5020792;28;20459;-80
2023/04/13 06:05:56;;;;;;;25.25;16.13;;;16.60;43.70;;;;;;5032638;28;20427;-81
2023/04/13 06:08:22;;;;;;;20.33;15.52;;;17.10;42.50;;;;;;5038739;28;20022;-82
2023/04/13 06:10:48;;;;;;;25.77;14.05;;;17.30;41.90;;;;;;5021573;28;20026;-84
2023/04/13 06:13:14;;;;;;;20.20;13.50;;;17.30;41.50;;;;;;5017167;28;20044;-83
2023/04/13 06:15:40;;;;;;;18.25;14.18;;;17.50;41.20;;;;;;5033778;28;20034;-81
2023/04/13 06:18:06;;;;;;;21.63;15.77;;;17.60;41.20;;;;;;5004707;28;20041;-82
2023/04/13 06:20:32;;;;;;;26.85;15.38;;;18.10;41.10;;;;;;5027307;28;20041;-82
2023/04/13 06:22:59;;;;;;;23.75;13.25;;;18.80;40.20;;;;;;5030093;28;20104;-83
2023/04/13 06:25:25;;;;;;;19.73;12.57;;;19.00;39.00;;;;;;5010592;28;20024;-82
2023/04/13 06:27:53;;;;;;;22.20;12.32;;;18.40;39.30;;;;;;5043057;28;20036;-82
2023/04/13 06:30:19;;;;;;;25.85;13.70;;;17.70;39.80;;;;;;5028228;28;20037;-83
2023/04/13 06:32:45;;;;;;;22.48;14.55;;;17.30;40.70;;;;;;4998349;28;20022;-83
2023/04/13 06:35:11;;;;;;;23.00;15.27;;;17.10;41.40;;;;;;4993214;28;20041;-82
2023/04/13 06:37:38;;;;;;;25.05;13.32;;;17.10;41.60;;;;;;5015776;28;20034;-82
2023/04/13 06:40:11;;;;;;;29.10;15.30;;;17.10;41.30;;;;;;5005873;28;20037;-83
2023/04/13 06:42:41;;;;;;;21.48;14.10;;;16.80;41.60;;;;;;5003331;28;20018;-83
2023/04/13 06:45:10;;;;;;;21.45;14.40;;;16.80;41.90;;;;;;5022008;28;20033;-82
2023/04/13 06:47:40;;;;;;;25.17;15.10;;;16.90;41.60;;;;;;5009161;28;20025;-80
2023/04/13 06:50:08;;;;;;;28.05;15.77;;;16.80;41.90;;;;;;5020368;28;20041;-82
2023/04/13 06:52:34;;;;;;;27.45;16.10;;;17.10;42.50;;;;;;4999377;28;20030;-83
2023/04/13 06:55:01;;;;;;;18.92;14.68;;;17.30;41.50;;;;;;5019149;28;20140;-82
2023/04/13 06:57:28;;;;;;;27.03;14.50;;;17.70;41.10;;;;;;5023692;28;20033;-82
2023/04/13 06:59:54;;;;;;;22.55;15.88;;;18.40;40.30;;;;;;5009850;28;20575;-82
2023/04/13 07:02:21;;;;;;;22.83;15.80;;;18.40;39.60;;;;;;5025951;28;20037;-82
2023/04/13 07:04:47;;;;;;;30.10;15.27;;;18.40;39.60;;;;;;5010487;28;20033;-83
2023/04/13 07:07:13;;;;;;;20.77;14.73;;;18.40;39.60;;;;;;5004475;28;20112;-83
2023/04/13 07:09:40;;;;;;;22.48;14.07;;;18.20;40.50;;;;;;5032621;28;20006;-83
2023/04/13 07:12:06;;;;;;;17.73;13.57;;;18.20;40.10;;;;;;5012939;28;20034;-83
2023/04/13 07:14:35;;;;;;;28.77;15.38;;;18.50;39.40;;;;;;5032593;28;20136;-83
2023/04/13 07:17:02;;;;;;;26.48;14.73;;;18.20;39.90;;;;;;5005092;28;20053;-82
2023/04/13 07:19:32;;;;;;;26.63;15.57;;;18.10;39.50;;;;;;5021750;28;20017;-82
2023/04/13 07:21:59;;;;;;;21.80;13.55;;;18.20;40.00;;;;;;5021179;28;20304;-82
2023/04/13 07:24:26;;;;;;;33.15;16.20;;;18.20;40.00;;;;;;5004097;28;20018;-82
2023/04/13 07:26:58;;;;;;;29.48;15.73;;;18.30;40.70;;;;;;5007776;28;20033;-83
2023/04/13 07:29:24;;;;;;;24.42;14.20;;;18.50;39.60;;;;;;5018669;28;20029;-84
2023/04/13 07:31:57;;;;;;;31.30;15.20;;;18.60;39.50;;;;;;5021527;28;20080;-81
2023/04/13 07:34:23;;;;;;;28.80;15.15;;;18.60;39.30;;;;;;5004218;28;20017;-83
2023/04/13 07:36:51;;;;;;;17.23;12.77;;;18.50;39.50;;;;;;5021681;28;20026;-84
2023/04/13 07:39:18;;;;;;;20.98;14.18;;;18.30;39.20;;;;;;5003833;28;20026;-84
2023/04/13 07:41:45;;;;;;;24.27;14.15;;;18.00;39.80;;;;;;5012012;28;20026;-83
2023/04/13 07:44:11;;;;;;;23.20;15.90;;;17.60;40.00;;;;;;5027022;28;20022;-81
2023/04/13 07:46:37;;;;;;;18.50;13.50;;;17.50;40.60;;;;;;4995804;28;20037;-81
2023/04/13 07:49:03;;;;;;;23.20;14.38;;;17.40;40.80;;;;;;5019708;28;20049;-82
2023/04/13 07:51:31;;;;;;;20.08;12.20;;;17.40;40.70;;;;;;5019316;28;20475;-82
2023/04/13 07:53:57;;;;;;;21.25;13.15;;;17.50;40.80;;;;;;5003514;28;20089;-83
2023/04/13 07:56:23;;;;;;;26.98;12.68;;;17.70;40.50;;;;;;5017699;28;20060;-83
2023/04/13 07:58:49;;;;;;;21.92;13.10;;;17.70;40.30;;;;;;5021958;28;20021;-83
2023/04/13 08:01:15;;;;;;;15.95;12.57;;;17.70;40.20;;;;;;5021080;28;20142;-82
2023/04/13 08:03:41;;;;;;;18.08;11.80;;;17.70;40.50;;;;;;5003930;28;20469;-81
2023/04/13 08:06:08;;;;;;;22.38;11.93;;;17.90;41.00;;;;;;5022344;28;20029;-81
2023/04/13 08:08:35;;;;;;;18.83;11.63;;;18.20;40.00;;;;;;5032415;28;20499;-85
2023/04/13 08:11:01;;;;;;;19.02;10.90;;;18.20;40.00;;;;;;5004805;28;20128;-81
2023/04/13 08:13:28;;;;;;;23.58;11.65;;;18.40;39.70;;;;;;5009557;28;20018;-82
2023/04/13 08:15:56;;;;;;;19.33;11.82;;;18.10;39.80;;;;;;5017630;28;20034;-82
2023/04/13 08:18:26;;;;;;;;;;;17.90;39.90;;;;;;5019649;28;20033;-82
2023/04/13 08:20:55;;;;;;;19.75;9.27;;;17.80;40.30;;;;;;4996443;28;19953;-81
2023/04/13 08:23:22;;;;;;;38.45;13.00;;;17.90;40.10;;;;;;5022205;28;20022;-83
2023/04/13 08:25:48;;;;;;;16.80;9.43;;;18.10;40.00;;;;;;5012886;28;20025;-81
2023/04/13 08:28:14;;;;;;;23.98;9.35;;;18.30;39.40;;;;;;5007883;28;20045;-82
2023/04/13 08:30:41;;;;;;;18.45;8.05;;;18.60;38.70;;;;;;5022385;28;20022;-82
2023/04/13 08:33:08;;;;;;;20.40;9.48;;;18.90;38.30;;;;;;5024256;28;20022;-83
2023/04/13 08:35:38;;;;;;;17.90;8.95;;;19.40;38.00;;;;;;5028099;28;20049;-82
2023/04/13 08:38:07;;;;;;;35.72;10.95;;;20.00;37.30;;;;;;5008146;28;20494;-83
2023/04/13 08:40:38;;;;;;;14.00;8.05;;;20.20;36.60;;;;;;5022684;28;20033;-82
2023/04/13 08:43:05;;;;;;;12.90;8.52;;;20.10;35.80;;;;;;5022698;28;20024;-83
2023/04/13 08:45:31;;;;;;;14.13;8.57;;;20.10;36.10;;;;;;5023465;28;20025;-80
2023/04/13 08:47:58;;;;;;;17.10;9.70;;;;;;;;;;5026010;28;20022;-83
2023/04/13 08:50:31;;;;;;;13.80;8.50;;;21.30;34.60;;;;;;5024693;28;20109;-83
2023/04/13 08:52:57;;;;;;;12.73;8.00;;;21.80;35.00;;;;;;5008841;28;20030;-83
2023/04/13 08:55:25;;;;;;;17.55;7.88;;;;;;;;;;5021821;28;20029;-82
2023/04/13 08:57:55;;;;;;;15.82;8.60;;;22.40;33.20;;;;;;5005910;28;20085;-82
2023/04/13 09:00:23;;;;;;;20.45;8.60;;;22.40;33.00;;;;;;5004216;28;20022;-82
2023/04/13 09:02:57;;;;;;;;;;;22.20;32.90;;;;;;5025581;28;20026;-82
2023/04/13 09:05:25;;;;;;;15.23;7.65;;;22.20;33.60;;;;;;5004501;28;19962;-82
2023/04/13 09:07:55;;;;;;;24.77;8.85;;;22.40;32.90;;;;;;5023458;28;20022;-82
2023/04/13 09:10:22;;;;;;;15.27;7.47;;;23.40;32.40;;;;;;5023783;28;20056;-84
2023/04/13 09:12:50;;;;;;;15.17;6.73;;;24.80;31.10;;;;;;5035188;28;20033;-82
2023/04/13 09:15:16;;;;;;;12.65;7.10;;;25.60;29.80;;;;;;5043756;28;20283;-82
2023/04/13 09:17:43;;;;;;;19.35;6.13;;;25.70;29.70;;;;;;5038355;28;20021;-82
2023/04/13 09:20:23;;;;;;;14.52;5.50;;;24.80;29.00;;;;;;5044344;28;20387;-82
2023/04/13 09:22:50;;;;;;;10.15;5.18;;;23.60;30.50;;;;;;5023638;28;20088;-83
2023/04/13 09:25:20;;;;;;;12.20;4.10;;;22.90;30.30;;;;;;5024374;28;20037;-83
2023/04/13 09:27:46;;;;;;;6.63;4.10;;;23.00;30.30;;;;;;5007083;28;20038;-81
2023/04/13 09:30:13;;;;;;;12.38;4.80;;;23.20;30.10;;;;;;5013566;28;20024;-82
2023/04/13 09:32:39;;;;;;;11.63;3.88;;;23.60;29.90;;;;;;5012434;28;20499;-83
2023/04/13 09:35:07;;;;;;;15.43;4.17;;;24.00;29.10;;;;;;5028458;28;20103;-82
2023/04/13 09:37:41;;;;;;;7.03;4.15;;;24.30;29.00;;;;;;5024884;28;20026;-84
2023/04/13 09:40:14;;;;;;;10.60;5.05;;;24.00;29.10;;;;;;5008086;28;20032;-82
2023/04/13 09:42:57;;;;;;;12.32;4.43;;;23.70;29.60;;;;;;5005708;28;20024;-83
2023/04/13 09:45:32;;;;;;;16.83;3.97;;;23.50;29.60;;;;;;5027269;28;20392;-81
2023/04/13 09:48:01;;;;;;;17.95;4.53;;;23.50;29.30;;;;;;5006328;28;20021;-82
2023/04/13 09:50:27;;;;;;;6.00;4.30;;;23.10;29.70;;;;;;5021254;28;20057;-82
2023/04/13 09:53:03;;;;;;;7.63;3.80;;;22.80;29.80;;;;;;5020562;28;20025;-83
2023/04/13 09:55:35;;;;;;;7.13;3.83;;;23.10;30.00;;;;;;5015596;28;20062;-82
2023/04/13 09:58:15;;;;;;;7.03;3.63;;;23.50;29.50;;;;;;5025057;28;20030;-82
2023/04/13 10:00:47;;;;;;;6.35;3.85;;;23.30;29.40;;;;;;5006891;28;20044;-83
2023/04/13 10:03:15;;;;;;;13.15;4.40;;;23.40;28.80;;;;;;5006675;28;20026;-83
2023/04/13 10:05:42;;;;;;;6.85;4.00;;;24.00;29.00;;;;;;5013608;28;20033;-83
2023/04/13 10:08:09;;;;;;;5.85;4.00;;;24.60;28.60;;;;;;5002071;28;20018;-81
2023/04/13 10:10:38;;;;;;;5.65;3.60;;;24.40;28.70;;;;;;5024600;28;20022;-82
2023/04/13 10:13:22;;;;;;;6.15;3.83;;;24.40;28.70;;;;;;5022770;28;20053;-81
2023/04/13 10:16:08;;;;;;;8.30;3.88;;;24.60;28.70;;;;;;5011730;28;20036;-81
2023/04/13 10:18:43;;;;;;;9.13;3.90;;;25.10;28.30;;;;;;5024637;28;20005;-83
2023/04/13 10:21:10;;;;;;;10.27;3.95;;;25.60;28.30;;;;;;5024608;28;20033;-82
2023/04/13 10:23:37;;;;;;;14.05;5.28;;;25.60;27.90;;;;;;5007822;28;20022;-83
2023/04/13 10:26:05;;;;;;;;;;;24.80;28.10;;;;;;5021856;28;20045;-82
2023/04/13 10:28:47;;;;;;;7.00;4.82;;;23.40;29.00;;;;;;5019764;28;20383;-82
2023/04/13 10:31:13;;;;;;;12.05;3.97;;;22.60;29.80;;;;;;4986880;28;20455;-83
2023/04/13 10:33:54;;;;;;;12.07;5.60;;;21.70;30.80;;;;;;5019190;28;20037;-82
2023/04/13 10:36:20;;;;;;;8.35;4.90;;;20.80;32.00;;;;;;5008559;28;20810;-84
2023/04/13 10:38:46;;;;;;;9.55;4.45;;;20.50;32.40;;;;;;5039165;28;20037;-82
2023/04/13 10:41:23;;;;;;;6.68;3.97;;;20.10;32.40;;;;;;5020717;28;20018;-83
2023/04/13 10:44:02;;;;;;;5.93;4.38;;;19.90;33.10;;;;;;5021106;28;20030;-82
2023/04/13 10:46:29;;;;;;;20.25;6.38;;;19.80;33.00;;;;;;5013478;28;20021;-83
2023/04/13 10:48:57;;;;;;;17.70;6.25;;;19.90;33.40;;;;;;5009064;28;20381;-82
2023/04/13 10:51:26;;;;;;;9.25;4.95;;;20.00;33.30;;;;;;5021787;28;20060;-84
2023/04/13 10:54:02;;;;;;;9.45;5.13;;;20.00;33.20;;;;;;5023465;28;20018;-82
2023/04/13 10:56:28;;;;;;;13.48;6.13;;;19.90;33.40;;;;;;5023388;28;20030;-83
2023/04/13 10:58:54;;;;;;;10.18;5.70;;;19.60;33.20;;;;;;5001697;28;20026;-84
2023/04/13 11:01:20;;;;;;;8.35;4.47;;;19.50;33.80;;;;;;5019405;28;20118;-82
2023/04/13 11:03:47;;;;;;;6.75;4.50;;;19.50;33.40;;;;;;5021216;28;20026;-82
2023/04/13 11:06:15;;;;;;;9.77;5.22;;;19.50;33.40;;;;;;5018532;28;20023;-82
2023/04/13 11:08:42;;;;;;;17.40;5.78;;;19.40;33.60;;;;;;5018567;28;20049;-82
2023/04/13 11:11:09;;;;;;;;;;;19.40;33.80;;;;;;5011209;28;20029;-82
2023/04/13 11:13:42;;;;;;;;;;;19.40;33.80;;;;;;5008998;28;20517;-81
2023/04/13 11:16:08;;;;;;;11.45;5.30;;;19.00;34.00;;;;;;5013241;28;19914;-81
2023/04/13 11:18:34;;;;;;;13.02;5.45;;;19.00;34.50;;;;;;4989751;28;20021;-82
2023/04/13 11:21:02;;;;;;;8.43;4.30;;;19.30;34.00;;;;;;4995898;28;20027;-83
2023/04/13 11:23:33;;;;;;;8.50;4.10;;;19.40;33.50;;;;;;5011246;28;20018;-82
2023/04/13 11:26:00;;;;;;;7.63;5.53;;;19.30;33.50;;;;;;5001644;28;20093;-83
2023/04/13 11:28:38;;;;;;;7.97;4.22;;;19.10;33.80;;;;;;5006917;28;20030;-84
2023/04/13 11:31:05;;;;;;;6.78;3.50;;;19.10;34.00;;;;;;5024596;28;20010;-81
2023/04/13 11:33:32;;;;;;;5.45;3.65;;;19.10;34.10;;;;;;5046855;28;20013;-82
2023/04/13 11:35:59;;;;;;;6.30;4.13;;;19.10;34.90;;;;;;5009638;28;20084;-83
2023/04/13 11:38:26;;;;;;;7.03;4.18;;;19.20;34.20;;;;;;5022553;28;20014;-82
2023/04/13 11:40:59;;;;;;;10.32;4.55;;;19.20;34.10;;;;;;5020843;28;20030;-83
2023/04/13 11:43:25;;;;;;;9.55;5.10;;;19.00;34.10;;;;;;5024100;28;20022;-83
2023/04/13 11:45:52;;;;;;;10.30;4.45;;;18.80;34.70;;;;;;5004050;28;20018;-82
2023/04/13 11:48:19;;;;;;;8.50;4.18;;;18.70;34.80;;;;;;4990690;28;20491;-83
2023/04/13 11:50:45;;;;;;;9.18;5.07;;;18.70;35.20;;;;;;5022890;28;20365;-82
2023/04/13 11:53:12;;;;;;;11.40;5.45;;;18.70;35.10;;;;;;5039986;28;20029;-82
2023/04/13 11:55:40;;;;;;;6.88;4.35;;;18.70;35.10;;;;;;5022961;28;20099;-81
2023/04/13 11:58:14;;;;;;;8.77;4.72;;;18.70;34.90;;;;;;5007786;28;20081;-83
2023/04/13 12:00:40;;;;;;;9.90;4.57;;;18.60;35.10;;;;;;5020472;28;20014;-84
2023/04/13 12:03:18;;;;;;;10.00;4.47;;;18.60;35.60;;;;;;5033236;28;20033;-80
2023/04/13 12:05:46;;;;;;;11.57;4.82;;;18.60;34.70;;;;;;5014133;28;20022;-82
2023/04/13 12:08:22;;;;;;;17.88;6.07;;;18.60;34.40;;;;;;5021550;28;20491;-81
2023/04/13 12:11:04;;;;;;;10.95;4.47;;;18.40;34.20;;;;;;5022445;28;20033;-83
2023/04/13 12:13:50;;;;;;;7.05;4.53;;;18.20;34.90;;;;;;5017538;28;20037;-83
2023/04/13 12:16:27;;;;;;;9.75;4.65;;;18.00;34.70;;;;;;4995582;28;20187;-84
2023/04/13 12:18:53;;;;;;;9.20;4.75;;;18.00;35.40;;;;;;5025094;28;20355;-82
2023/04/13 12:21:20;;;;;;;8.63;4.18;;;18.00;35.70;;;;;;5023022;28;20050;-82
2023/04/13 12:23:53;;;;;;;8.25;5.22;;;18.00;35.70;;;;;;5022268;28;20076;-86
2023/04/13 12:26:19;;;;;;;9.82;5.50;;;18.00;35.90;;;;;;5021370;28;20026;-82
2023/04/13 12:28:48;;;;;;;16.50;5.38;;;18.20;36.10;;;;;;5021161;28;20101;-82
2023/04/13 12:31:15;;;;;;;11.10;5.05;;;18.30;35.80;;;;;;5020606;28;20033;-83
2023/04/13 12:33:41;;;;;;;8.30;5.03;;;18.20;35.80;;;;;;5020611;28;20022;-84
2023/04/13 12:36:10;;;;;;;9.93;5.25;;;18.10;36.00;;;;;;5019585;28;20287;-84
2023/04/13 12:38:36;;;;;;;12.20;5.38;;;18.10;36.30;;;;;;5022496;28;20029;-81
2023/04/13 12:41:02;;;;;;;10.40;5.70;;;18.10;36.50;;;;;;5021552;28;20105;-83